FlightSource - Aviation Photo Database

World Wide Airport Lookup


Search by ICAO
Or
Search by City

FlightSource.ca - Aviation Photo Database - Gimpo International Airport Information
Airport Identification
Name: Gimpo International Airport
ICAO: RKSS
IATA: GMP
Airport Location
City: Seoul
Region: 41
Country: South Korea
Continent: AS
Latitude: 37.5583
Longitude: 126.791
Airport Information
Type: Large Airport
Elevation: 58 Feet ASL
Flight Status: RKSS
More Info: RKSS
Airport Weather    
Metar: RKSS 122100Z 32007KT CAVOK M12/M20 Q1032 NOSIG
TAF:


Advertisement